createdAt,value
2022-08-11T00:02:30.091Z,26.70
2022-08-11T00:05:03.008Z,26.70
2022-08-11T00:07:32.000Z,26.70
2022-08-11T00:10:01.807Z,26.70
2022-08-11T00:12:31.837Z,26.70
2022-08-11T00:15:02.261Z,26.70
2022-08-11T00:17:33.781Z,26.70
2022-08-11T00:20:14.361Z,26.70
2022-08-11T00:22:48.382Z,26.60
2022-08-11T00:25:19.004Z,26.60
2022-08-11T00:27:49.986Z,26.50
2022-08-11T00:30:18.772Z,26.50
2022-08-11T00:32:59.398Z,26.50
2022-08-11T00:35:50.908Z,26.50
2022-08-11T00:38:25.768Z,26.50
2022-08-11T00:41:01.510Z,26.50
2022-08-11T00:43:46.501Z,26.40
2022-08-11T00:46:23.597Z,26.40
2022-08-11T00:49:17.279Z,26.40
2022-08-11T00:52:05.818Z,26.40
2022-08-11T00:55:04.806Z,26.40
2022-08-11T00:58:03.068Z,26.20
2022-08-11T01:00:47.816Z,26.20
2022-08-11T01:03:45.510Z,26.10
2022-08-11T01:06:39.175Z,26.00
2022-08-11T01:09:30.054Z,26.00
2022-08-11T01:12:25.432Z,26.00
2022-08-11T01:15:31.059Z,26.00
2022-08-11T01:18:35.391Z,25.90
2022-08-11T01:21:52.962Z,25.80
2022-08-11T01:24:52.578Z,25.90
2022-08-11T01:28:02.752Z,25.80
2022-08-11T01:31:04.538Z,25.90
2022-08-11T01:34:34.248Z,25.80
2022-08-11T01:37:17.236Z,25.80
2022-08-11T01:40:27.086Z,25.70
2022-08-11T01:43:51.451Z,25.70
2022-08-11T01:46:26.168Z,25.70
2022-08-11T01:50:05.200Z,25.70
2022-08-11T01:52:09.852Z,25.70
2022-08-11T01:54:44.661Z,25.70
2022-08-11T01:57:34.176Z,25.70
2022-08-11T02:00:08.966Z,25.70
2022-08-11T02:02:47.989Z,25.70
2022-08-11T02:05:30.036Z,25.70
2022-08-11T02:08:09.830Z,25.70
2022-08-11T02:11:02.906Z,25.70
2022-08-11T02:13:41.357Z,25.60
2022-08-11T02:16:27.979Z,25.50
2022-08-11T02:19:24.039Z,25.40
2022-08-11T02:22:18.594Z,25.40
2022-08-11T02:24:55.441Z,25.50
2022-08-11T02:27:26.328Z,25.40
2022-08-11T02:30:07.277Z,25.40
2022-08-11T02:33:00.215Z,25.50
2022-08-11T02:35:43.147Z,25.50
2022-08-11T02:38:21.880Z,25.40
2022-08-11T02:41:02.022Z,25.40
2022-08-11T02:43:48.702Z,25.40
2022-08-11T02:46:24.445Z,25.50
2022-08-11T02:49:18.799Z,25.50
2022-08-11T02:52:09.654Z,25.50
2022-08-11T02:54:46.249Z,25.50
2022-08-11T02:57:23.609Z,25.40
2022-08-11T02:59:56.100Z,25.40
2022-08-11T03:02:51.331Z,25.40
2022-08-11T03:05:45.218Z,25.40
2022-08-11T03:08:30.240Z,25.40
2022-08-11T03:11:23.962Z,25.30
2022-08-11T03:14:28.431Z,25.20
2022-08-11T03:17:02.121Z,25.20
2022-08-11T03:19:40.919Z,25.20
2022-08-11T03:22:20.137Z,25.30
2022-08-11T03:25:02.403Z,25.10
2022-08-11T03:27:40.268Z,25.10
2022-08-11T03:30:16.444Z,25.00
2022-08-11T03:33:24.037Z,25.00
2022-08-11T03:36:04.732Z,25.00
2022-08-11T03:38:47.097Z,25.00
2022-08-11T03:42:01.948Z,24.80
2022-08-11T03:44:49.579Z,24.90
2022-08-11T03:47:52.397Z,24.80
2022-08-11T03:50:53.111Z,24.80
2022-08-11T03:53:50.170Z,24.90
2022-08-11T03:57:04.286Z,24.90
2022-08-11T04:00:08.988Z,24.90
2022-08-11T04:03:31.392Z,24.90
2022-08-11T04:06:38.665Z,24.90
2022-08-11T04:09:48.804Z,24.90
2022-08-11T04:12:36.310Z,24.80
2022-08-11T04:16:11.043Z,24.90
2022-08-11T04:19:24.086Z,24.80
2022-08-11T04:22:37.834Z,24.80
2022-08-11T04:25:27.407Z,24.80
2022-08-11T04:28:29.253Z,24.70
2022-08-11T04:31:51.363Z,24.70
2022-08-11T04:34:36.786Z,24.70
2022-08-11T04:37:35.412Z,24.70
2022-08-11T04:40:33.931Z,24.70
2022-08-11T04:44:02.794Z,24.70
2022-08-11T04:46:54.804Z,24.70
2022-08-11T04:50:17.912Z,24.70
2022-08-11T04:53:28.964Z,24.70
2022-08-11T04:56:35.317Z,24.60
2022-08-11T04:59:59.080Z,24.60
2022-08-11T05:03:14.748Z,24.60
2022-08-11T05:06:19.913Z,24.60
2022-08-11T05:09:18.322Z,24.60
2022-08-11T05:12:11.021Z,24.60
2022-08-11T05:15:14.446Z,24.50
2022-08-11T05:18:12.895Z,24.50
2022-08-11T05:21:05.853Z,24.60
2022-08-11T05:23:54.754Z,24.60
2022-08-11T05:26:47.611Z,24.70
2022-08-11T05:29:50.372Z,24.60
2022-08-11T05:32:36.999Z,24.50
2022-08-11T05:35:08.434Z,24.60
2022-08-11T05:37:57.804Z,24.50
2022-08-11T05:40:51.431Z,24.50
2022-08-11T05:44:20.532Z,24.50
2022-08-11T05:46:49.410Z,24.60
2022-08-11T05:49:35.019Z,24.60
2022-08-11T05:52:31.872Z,24.60
2022-08-11T05:55:22.102Z,24.70
2022-08-11T05:57:56.076Z,24.80
2022-08-11T06:00:24.620Z,24.80
2022-08-11T06:02:55.148Z,24.90
2022-08-11T06:05:26.166Z,24.90
2022-08-11T06:07:57.337Z,24.90
2022-08-11T06:10:33.119Z,25.00
2022-08-11T06:13:03.239Z,24.90
2022-08-11T06:15:37.347Z,24.90
2022-08-11T06:18:06.582Z,25.00
2022-08-11T06:20:45.190Z,25.10
2022-08-11T06:23:18.757Z,25.10
2022-08-11T06:25:47.575Z,25.20
2022-08-11T06:28:20.705Z,25.20
2022-08-11T06:30:50.046Z,25.20
2022-08-11T06:33:22.448Z,25.20
2022-08-11T06:36:01.070Z,25.40
2022-08-11T06:38:49.125Z,25.40
2022-08-11T06:41:34.729Z,25.40
2022-08-11T06:44:16.681Z,25.40
2022-08-11T06:46:47.965Z,25.40
2022-08-11T06:49:35.117Z,25.50
2022-08-11T06:52:05.154Z,25.60
2022-08-11T06:54:38.574Z,25.70
2022-08-11T06:57:29.884Z,25.70
2022-08-11T07:00:28.838Z,25.70
2022-08-11T07:03:04.309Z,25.70
2022-08-11T07:05:45.981Z,25.80
2022-08-11T07:08:53.563Z,25.90
2022-08-11T07:12:16.243Z,25.80
2022-08-11T07:15:14.398Z,25.90
2022-08-11T07:17:51.492Z,26.00
2022-08-11T07:20:37.204Z,26.00
2022-08-11T07:23:27.661Z,26.00
2022-08-11T07:26:15.177Z,26.10
2022-08-11T07:28:57.945Z,26.10
2022-08-11T07:31:33.355Z,26.10
2022-08-11T07:34:18.134Z,26.20
2022-08-11T07:36:51.429Z,26.30
2022-08-11T07:39:23.630Z,26.40
2022-08-11T07:41:54.566Z,26.50
2022-08-11T07:44:34.447Z,26.50
2022-08-11T07:47:23.326Z,26.50
2022-08-11T07:50:12.938Z,26.50
2022-08-11T07:52:41.509Z,26.60
2022-08-11T07:55:14.357Z,26.70
2022-08-11T07:58:19.426Z,26.60
2022-08-11T08:01:10.023Z,26.70
2022-08-11T08:03:57.496Z,26.80
2022-08-11T08:06:45.888Z,26.90
2022-08-11T08:09:34.256Z,26.90
2022-08-11T08:12:21.667Z,26.90
2022-08-11T08:15:07.839Z,27.00
2022-08-11T08:18:20.852Z,27.00
2022-08-11T08:20:49.742Z,27.10
2022-08-11T08:23:32.873Z,27.10
2022-08-11T08:26:29.820Z,27.10
2022-08-11T08:29:15.971Z,27.30
2022-08-11T08:31:44.958Z,27.30
2022-08-11T08:34:16.457Z,27.30
2022-08-11T08:36:47.803Z,27.30
2022-08-11T08:39:21.639Z,27.40
2022-08-11T08:41:53.976Z,27.40
2022-08-11T08:44:41.524Z,27.40
2022-08-11T08:47:15.025Z,27.40
2022-08-11T08:50:06.095Z,27.40
2022-08-11T08:52:43.694Z,27.50
2022-08-11T08:55:18.666Z,27.60
2022-08-11T08:57:49.371Z,27.70
2022-08-11T09:00:22.978Z,27.70
2022-08-11T09:02:53.112Z,27.80
2022-08-11T09:05:23.764Z,27.80
2022-08-11T09:07:55.010Z,27.90
2022-08-11T09:10:25.361Z,28.00
2022-08-11T09:12:54.321Z,28.10
2022-08-11T09:15:23.309Z,28.10
2022-08-11T09:18:03.642Z,28.20
2022-08-11T09:20:34.340Z,28.10
2022-08-11T09:24:08.798Z,28.20
2022-08-11T09:26:30.910Z,28.20
2022-08-11T09:29:01.231Z,28.20
2022-08-11T09:31:38.717Z,28.30
2022-08-11T09:34:08.667Z,28.30
2022-08-11T09:36:54.777Z,28.50
2022-08-11T09:39:40.703Z,28.50
2022-08-11T09:42:16.388Z,28.50
2022-08-11T09:44:50.890Z,28.40
2022-08-11T09:47:24.617Z,28.50
2022-08-11T09:50:01.023Z,28.50
2022-08-11T09:52:33.214Z,28.60
2022-08-11T09:55:02.063Z,28.80
2022-08-11T09:57:48.728Z,28.80
2022-08-11T10:00:17.729Z,28.80
2022-08-11T10:02:47.963Z,29.00
2022-08-11T10:05:36.961Z,29.10
2022-08-11T10:08:08.334Z,29.00
2022-08-11T10:10:38.938Z,29.10
2022-08-11T10:14:30.471Z,29.20
2022-08-11T10:16:15.803Z,29.10
2022-08-11T10:18:53.188Z,29.20
2022-08-11T10:21:29.023Z,29.40
2022-08-11T10:24:17.280Z,29.40
2022-08-11T10:27:00.843Z,29.50
2022-08-11T10:29:51.271Z,29.50
2022-08-11T10:32:57.292Z,29.60
2022-08-11T10:35:28.314Z,29.60
2022-08-11T10:38:07.358Z,29.70
2022-08-11T10:40:39.917Z,29.70
2022-08-11T10:43:13.713Z,29.80
2022-08-11T10:46:04.734Z,29.80
2022-08-11T10:48:38.293Z,29.90
2022-08-11T10:51:50.020Z,30.00
2022-08-11T10:54:26.986Z,30.00
2022-08-11T10:57:13.683Z,30.00
2022-08-11T10:59:43.314Z,29.90
2022-08-11T11:02:15.901Z,30.10
2022-08-11T11:05:00.424Z,30.20
2022-08-11T11:07:41.504Z,30.40
2022-08-11T11:10:12.531Z,30.30
2022-08-11T11:13:02.123Z,30.20
2022-08-11T11:15:55.553Z,30.20
2022-08-11T11:18:29.572Z,30.20
2022-08-11T11:21:01.266Z,30.20
2022-08-11T11:23:34.828Z,30.30
2022-08-11T11:26:35.079Z,30.40
2022-08-11T11:29:40.504Z,30.40
2022-08-11T11:32:18.659Z,30.50
2022-08-11T11:35:18.058Z,30.30
2022-08-11T11:38:03.638Z,30.20
2022-08-11T11:40:34.938Z,30.40
2022-08-11T11:43:03.651Z,30.40
2022-08-11T11:45:32.332Z,30.40
2022-08-11T11:48:04.333Z,30.40
2022-08-11T11:50:36.797Z,30.40
2022-08-11T11:53:07.763Z,30.50
2022-08-11T11:55:37.050Z,30.50
2022-08-11T11:58:24.023Z,30.60
2022-08-11T12:01:10.985Z,30.60
2022-08-11T12:03:40.521Z,30.70
2022-08-11T12:06:12.114Z,30.70
2022-08-11T12:08:40.181Z,30.80
2022-08-11T12:11:28.747Z,30.90
2022-08-11T12:13:59.504Z,31.00
2022-08-11T12:16:34.190Z,30.90
2022-08-11T12:19:07.016Z,31.10
2022-08-11T12:21:39.583Z,31.30
2022-08-11T12:24:28.551Z,31.40
2022-08-11T12:27:18.117Z,31.50
2022-08-11T12:29:54.525Z,31.60
2022-08-11T12:32:24.534Z,31.60
2022-08-11T12:34:52.672Z,31.80
2022-08-11T12:37:30.009Z,31.80
2022-08-11T12:40:43.408Z,31.90
2022-08-11T12:43:38.129Z,32.00
2022-08-11T12:46:15.243Z,31.90
2022-08-11T12:49:04.898Z,31.90
2022-08-11T12:52:12.292Z,32.00
2022-08-11T12:54:52.782Z,32.00
2022-08-11T12:57:45.039Z,32.20
2022-08-11T13:00:31.416Z,32.30
2022-08-11T13:03:17.621Z,32.30
2022-08-11T13:05:49.657Z,32.40
2022-08-11T13:08:19.043Z,32.30
2022-08-11T13:11:13.949Z,32.30
2022-08-11T13:13:53.438Z,32.40
2022-08-11T13:16:26.188Z,32.50
2022-08-11T13:18:54.715Z,32.60
2022-08-11T13:21:23.871Z,32.60
2022-08-11T13:24:01.568Z,32.80
2022-08-11T13:26:49.967Z,32.80
2022-08-11T13:29:24.025Z,32.70
2022-08-11T13:31:53.494Z,32.60
2022-08-11T13:34:23.973Z,32.50
2022-08-11T13:36:53.683Z,32.60
2022-08-11T13:39:24.531Z,32.70
2022-08-11T13:41:56.395Z,32.80
2022-08-11T13:44:28.119Z,32.90
2022-08-11T13:46:58.378Z,33.00
2022-08-11T13:49:28.032Z,33.00
2022-08-11T13:51:57.071Z,33.00
2022-08-11T13:54:28.447Z,32.90
2022-08-11T13:57:03.275Z,32.90
2022-08-11T13:59:52.035Z,33.10
2022-08-11T14:02:29.081Z,32.90
2022-08-11T14:05:00.176Z,33.00
2022-08-11T14:07:35.482Z,33.00
2022-08-11T14:10:07.722Z,33.10
2022-08-11T14:12:56.699Z,33.10
2022-08-11T14:15:31.233Z,33.20
2022-08-11T14:18:04.952Z,33.20
2022-08-11T14:20:49.237Z,33.40
2022-08-11T14:23:19.019Z,33.40
2022-08-11T14:26:02.391Z,33.40
2022-08-11T14:28:44.498Z,33.30
2022-08-11T14:31:14.967Z,33.40
2022-08-11T14:34:00.913Z,33.40
2022-08-11T14:36:33.887Z,33.30
2022-08-11T14:39:05.175Z,33.30
2022-08-11T14:42:12.665Z,33.30
2022-08-11T14:45:17.066Z,33.20
2022-08-11T14:47:48.636Z,33.30
2022-08-11T14:50:22.980Z,33.30
2022-08-11T14:52:55.450Z,33.40
2022-08-11T14:55:43.939Z,33.30
2022-08-11T14:58:14.165Z,33.50
2022-08-11T15:00:44.583Z,33.30
2022-08-11T15:03:14.112Z,33.20
2022-08-11T15:05:57.506Z,33.30
2022-08-11T15:08:46.694Z,33.30
2022-08-11T15:11:34.120Z,33.20
2022-08-11T15:14:06.031Z,33.20
2022-08-11T15:16:53.987Z,33.20
2022-08-11T15:19:22.306Z,33.00
2022-08-11T15:22:08.655Z,33.10
2022-08-11T15:24:37.482Z,33.10
2022-08-11T15:27:28.061Z,33.00
2022-08-11T15:30:26.850Z,33.10
2022-08-11T15:33:24.865Z,33.10
2022-08-11T15:36:12.449Z,33.00
2022-08-11T15:38:45.361Z,33.10
2022-08-11T15:41:35.954Z,33.00
2022-08-11T15:44:44.523Z,33.00
2022-08-11T15:47:15.515Z,32.90
2022-08-11T15:50:11.213Z,32.80
2022-08-11T15:52:40.459Z,32.80
2022-08-11T15:55:10.849Z,32.80
2022-08-11T15:58:01.612Z,32.70
2022-08-11T16:00:48.687Z,32.60
2022-08-11T16:03:54.399Z,32.60
2022-08-11T16:06:36.467Z,32.50
2022-08-11T16:09:17.921Z,32.40
2022-08-11T16:11:47.740Z,32.30
2022-08-11T16:14:36.048Z,32.10
2022-08-11T16:17:06.821Z,32.10
2022-08-11T16:19:37.835Z,32.20
2022-08-11T16:22:12.340Z,32.20
2022-08-11T16:27:04.288Z,32.20
2022-08-11T16:27:37.395Z,32.30
2022-08-11T16:30:07.245Z,32.20
2022-08-11T16:32:37.742Z,32.20
2022-08-11T16:35:27.269Z,32.20
2022-08-11T16:38:15.424Z,32.10
2022-08-11T16:40:44.788Z,31.90
2022-08-11T16:43:37.294Z,32.00
2022-08-11T16:46:26.395Z,32.00
2022-08-11T16:48:55.917Z,31.90
2022-08-11T16:51:24.542Z,31.80
2022-08-11T16:54:03.212Z,31.80
2022-08-11T16:56:37.147Z,31.90
2022-08-11T16:59:15.994Z,31.80
2022-08-11T17:01:48.193Z,31.80
2022-08-11T17:04:39.558Z,31.80
2022-08-11T17:07:41.960Z,31.70
2022-08-11T17:10:50.991Z,31.70
2022-08-11T17:13:29.979Z,31.70
2022-08-11T17:16:11.444Z,31.70
2022-08-11T17:18:45.383Z,31.60
2022-08-11T17:21:19.050Z,31.60
2022-08-11T17:23:50.527Z,31.60
2022-08-11T17:26:46.862Z,31.60
2022-08-11T17:29:17.933Z,31.60
2022-08-11T17:32:04.536Z,31.50
2022-08-11T17:34:50.548Z,31.50
2022-08-11T17:37:19.675Z,31.30
2022-08-11T17:39:48.621Z,31.30
2022-08-11T17:42:36.416Z,31.40
2022-08-11T17:45:24.110Z,31.40
2022-08-11T17:48:09.826Z,31.30
2022-08-11T17:50:38.758Z,31.30
2022-08-11T17:53:24.637Z,31.20
2022-08-11T17:56:11.911Z,31.30
2022-08-11T17:58:59.859Z,31.30
2022-08-11T18:01:29.171Z,31.20
2022-08-11T18:03:58.339Z,31.10
2022-08-11T18:06:33.725Z,31.10
2022-08-11T18:09:22.419Z,31.10
2022-08-11T18:12:11.423Z,31.20
2022-08-11T18:15:03.118Z,31.20
2022-08-11T18:17:48.566Z,31.10
2022-08-11T18:20:34.066Z,31.10
2022-08-11T18:23:40.575Z,31.10
2022-08-11T18:26:30.638Z,31.10
2022-08-11T18:29:17.683Z,31.00
2022-08-11T18:32:08.483Z,30.90
2022-08-11T18:34:59.896Z,31.00
2022-08-11T18:37:49.847Z,31.00
2022-08-11T18:40:38.469Z,31.00
2022-08-11T18:43:27.478Z,31.00
2022-08-11T18:46:19.973Z,31.00
2022-08-11T18:49:14.964Z,30.90
2022-08-11T18:52:05.326Z,30.80
2022-08-11T18:54:55.486Z,30.80
2022-08-11T18:57:49.860Z,30.70
2022-08-11T19:00:41.865Z,30.70
2022-08-11T19:03:30.424Z,30.70
2022-08-11T19:06:39.945Z,30.70
2022-08-11T19:09:30.584Z,30.70
2022-08-11T19:12:17.840Z,30.70
2022-08-11T19:15:06.375Z,30.60
2022-08-11T19:17:54.447Z,30.60
2022-08-11T19:20:43.591Z,30.50
2022-08-11T19:23:33.948Z,30.50
2022-08-11T19:26:21.281Z,30.50
2022-08-11T19:29:08.100Z,30.40
2022-08-11T19:31:55.794Z,30.40
2022-08-11T19:34:43.298Z,30.40
2022-08-11T19:37:29.737Z,30.40
2022-08-11T19:40:20.361Z,30.30
2022-08-11T19:43:16.878Z,30.30
2022-08-11T19:46:13.544Z,30.30
2022-08-11T19:49:00.859Z,30.30
2022-08-11T19:51:47.940Z,30.20
2022-08-11T19:54:42.646Z,30.20
2022-08-11T19:57:34.544Z,30.10
2022-08-11T20:00:24.645Z,30.10
2022-08-11T20:03:16.268Z,30.00
2022-08-11T20:06:02.276Z,30.00
2022-08-11T20:08:50.975Z,29.90
2022-08-11T20:11:39.195Z,29.90
2022-08-11T20:14:28.386Z,29.90
2022-08-11T20:17:15.293Z,29.90
2022-08-11T20:20:02.032Z,29.90
2022-08-11T20:22:49.749Z,29.90
2022-08-11T20:25:36.536Z,29.90
2022-08-11T20:28:23.966Z,29.80
2022-08-11T20:31:11.930Z,29.80
2022-08-11T20:33:59.387Z,29.80
2022-08-11T20:36:49.948Z,29.80
2022-08-11T20:39:41.614Z,29.80
2022-08-11T20:42:30.490Z,29.70
2022-08-11T20:45:23.626Z,29.70
2022-08-11T20:48:14.746Z,29.70
2022-08-11T20:51:11.157Z,29.60
2022-08-11T20:54:05.677Z,29.50
2022-08-11T20:56:54.682Z,29.50
2022-08-11T20:59:56.538Z,29.50
2022-08-11T21:02:44.933Z,29.50
2022-08-11T21:06:09.125Z,29.50
2022-08-11T21:08:41.759Z,29.40
2022-08-11T21:11:30.127Z,29.40
2022-08-11T21:14:16.907Z,29.40
2022-08-11T21:17:27.960Z,29.30
2022-08-11T21:20:20.399Z,29.30
2022-08-11T21:23:14.956Z,29.30
2022-08-11T21:26:15.568Z,29.30
2022-08-11T21:29:01.971Z,29.20
2022-08-11T21:31:50.779Z,29.20
2022-08-11T21:34:39.767Z,29.20
2022-08-11T21:37:27.490Z,29.10
2022-08-11T21:40:17.420Z,29.10
2022-08-11T21:43:05.713Z,29.10
2022-08-11T21:45:54.483Z,29.10
2022-08-11T21:48:42.345Z,29.10
2022-08-11T21:51:27.931Z,29.10
2022-08-11T21:54:15.432Z,29.00
2022-08-11T21:57:04.277Z,29.00
2022-08-11T21:59:56.742Z,29.00
2022-08-11T22:02:44.580Z,28.90
2022-08-11T22:05:39.008Z,28.90
2022-08-11T22:08:25.607Z,28.90
2022-08-11T22:11:11.023Z,28.90
2022-08-11T22:14:05.730Z,28.80
2022-08-11T22:16:53.688Z,28.80
2022-08-11T22:19:40.296Z,28.70
2022-08-11T22:22:26.683Z,28.70
2022-08-11T22:25:16.285Z,28.60
2022-08-11T22:28:06.101Z,28.60
2022-08-11T22:30:53.584Z,28.60
2022-08-11T22:33:51.715Z,28.50
2022-08-11T22:36:47.366Z,28.50
2022-08-11T22:39:35.312Z,28.50
2022-08-11T22:42:24.075Z,28.50
2022-08-11T22:45:19.370Z,28.40
2022-08-11T22:48:07.514Z,28.40
2022-08-11T22:50:55.082Z,28.40
2022-08-11T22:53:57.470Z,28.30
2022-08-11T22:56:46.416Z,28.30
2022-08-11T22:59:33.338Z,28.30
2022-08-11T23:02:19.635Z,28.20
2022-08-11T23:05:07.390Z,28.20
2022-08-11T23:07:54.458Z,28.20
2022-08-11T23:10:40.850Z,28.20
2022-08-11T23:13:27.140Z,28.20
2022-08-11T23:16:14.252Z,28.10
2022-08-11T23:19:00.706Z,28.10
2022-08-11T23:21:49.581Z,28.00
2022-08-11T23:24:35.911Z,28.00
2022-08-11T23:27:22.679Z,28.00
2022-08-11T23:30:11.187Z,28.00
2022-08-11T23:32:58.404Z,28.00
2022-08-11T23:35:53.619Z,28.00
2022-08-11T23:38:43.856Z,28.00
2022-08-11T23:41:32.335Z,28.00
2022-08-11T23:44:19.655Z,27.90
2022-08-11T23:47:06.895Z,27.90
2022-08-11T23:49:54.206Z,27.80
2022-08-11T23:52:41.800Z,27.80
2022-08-11T23:55:29.782Z,27.80
2022-08-11T23:58:16.454Z,27.80
